createdAt,value
2022-08-11T00:02:32.060Z,18.70
2022-08-11T00:05:08.366Z,19.23
2022-08-11T00:07:43.546Z,18.75
2022-08-11T00:10:14.158Z,18.95
2022-08-11T00:12:44.189Z,18.15
2022-08-11T00:15:13.605Z,18.27
2022-08-11T00:17:42.812Z,17.85
2022-08-11T00:20:16.867Z,18.45
2022-08-11T00:22:47.641Z,18.15
2022-08-11T00:25:18.008Z,18.30
2022-08-11T00:27:47.952Z,18.02
2022-08-11T00:30:17.117Z,30.95
2022-08-11T00:32:47.392Z,18.77
2022-08-11T00:35:51.366Z,19.02
2022-08-11T00:38:08.469Z,19.48
2022-08-11T00:40:42.648Z,18.38
2022-08-11T00:43:21.280Z,19.05
2022-08-11T00:46:10.372Z,17.65
2022-08-11T00:48:48.713Z,18.48
2022-08-11T00:52:04.085Z,19.23
2022-08-11T00:55:01.408Z,18.20
2022-08-11T00:58:08.589Z,18.67
2022-08-11T01:00:59.726Z,18.52
2022-08-11T01:03:45.547Z,17.58
2022-08-11T01:07:03.155Z,18.08
2022-08-11T01:09:50.869Z,17.98
2022-08-11T01:12:41.421Z,17.63
2022-08-11T01:15:35.975Z,17.60
2022-08-11T01:18:54.632Z,17.92
2022-08-11T01:22:11.356Z,18.85
2022-08-11T01:25:07.843Z,17.50
2022-08-11T01:28:30.581Z,17.25
2022-08-11T01:31:33.795Z,17.80
2022-08-11T01:34:56.139Z,18.10
2022-08-11T01:37:56.826Z,17.90
2022-08-11T01:40:57.866Z,18.20
2022-08-11T01:44:29.583Z,17.75
2022-08-11T01:47:06.858Z,17.80
2022-08-11T01:50:07.834Z,17.70
2022-08-11T01:52:44.261Z,17.50
2022-08-11T01:55:24.161Z,17.88
2022-08-11T01:57:58.163Z,18.42
2022-08-11T02:00:29.042Z,17.08
2022-08-11T02:03:08.157Z,17.50
2022-08-11T02:06:00.433Z,17.58
2022-08-11T02:08:44.212Z,17.67
2022-08-11T02:11:30.423Z,17.85
2022-08-11T02:14:04.303Z,17.60
2022-08-11T02:16:47.478Z,17.75
2022-08-11T02:19:45.269Z,17.08
2022-08-11T02:22:37.520Z,17.38
2022-08-11T02:25:10.706Z,17.85
2022-08-11T02:27:44.498Z,17.25
2022-08-11T02:30:16.192Z,17.23
2022-08-11T02:33:09.387Z,17.75
2022-08-11T02:35:47.868Z,17.67
2022-08-11T02:38:25.910Z,18.08
2022-08-11T02:41:03.932Z,17.40
2022-08-11T02:43:46.059Z,17.70
2022-08-11T02:46:28.045Z,18.00
2022-08-11T02:49:23.869Z,17.75
2022-08-11T02:52:06.261Z,17.70
2022-08-11T02:54:40.388Z,17.05
2022-08-11T02:57:19.228Z,18.13
2022-08-11T02:59:53.328Z,17.27
2022-08-11T03:02:50.188Z,17.65
2022-08-11T03:05:38.940Z,17.50
2022-08-11T03:08:20.036Z,17.50
2022-08-11T03:11:15.632Z,17.63
2022-08-11T03:14:10.274Z,17.55
2022-08-11T03:16:48.701Z,17.88
2022-08-11T03:19:24.180Z,17.60
2022-08-11T03:22:06.349Z,18.60
2022-08-11T03:24:50.589Z,16.70
2022-08-11T03:27:32.930Z,17.70
2022-08-11T03:30:11.284Z,19.00
2022-08-11T03:33:16.589Z,17.60
2022-08-11T03:36:06.874Z,17.50
2022-08-11T03:38:59.954Z,17.67
2022-08-11T03:41:49.578Z,17.50
2022-08-11T03:44:51.503Z,17.25
2022-08-11T03:47:55.012Z,17.83
2022-08-11T03:50:55.673Z,17.45
2022-08-11T03:53:45.367Z,18.00
2022-08-11T03:57:03.368Z,17.33
2022-08-11T04:00:12.333Z,18.33
2022-08-11T04:03:11.149Z,18.60
2022-08-11T04:06:24.701Z,19.33
2022-08-11T04:09:35.237Z,19.00
2022-08-11T04:12:35.586Z,18.50
2022-08-11T04:15:49.957Z,18.77
2022-08-11T04:18:57.749Z,19.20
2022-08-11T04:21:52.722Z,18.00
2022-08-11T04:24:55.492Z,19.98
2022-08-11T04:27:50.097Z,18.85
2022-08-11T04:30:28.593Z,18.08
2022-08-11T04:33:35.233Z,17.65
2022-08-11T04:36:48.272Z,17.45
2022-08-11T04:39:29.204Z,18.50
2022-08-11T04:42:32.776Z,18.27
2022-08-11T04:45:36.000Z,17.58
2022-08-11T04:48:41.154Z,18.10
2022-08-11T04:52:00.570Z,17.40
2022-08-11T04:55:03.643Z,17.17
2022-08-11T04:57:59.660Z,16.83
2022-08-11T05:00:50.546Z,17.10
2022-08-11T05:03:44.278Z,17.77
2022-08-11T05:06:52.277Z,17.35
2022-08-11T05:09:44.663Z,18.08
2022-08-11T05:12:33.357Z,17.33
2022-08-11T05:15:20.276Z,18.33
2022-08-11T05:18:16.726Z,17.85
2022-08-11T05:21:09.885Z,19.08
2022-08-11T05:24:01.841Z,17.40
2022-08-11T05:26:55.445Z,19.15
2022-08-11T05:29:54.452Z,16.58
2022-08-11T05:32:44.259Z,17.13
2022-08-11T05:35:28.759Z,16.50
2022-08-11T05:38:20.183Z,17.02
2022-08-11T05:41:11.097Z,16.70
2022-08-11T05:44:20.839Z,15.30
2022-08-11T05:47:09.519Z,14.85
2022-08-11T05:49:56.640Z,15.27
2022-08-11T05:52:46.901Z,15.20
2022-08-11T05:55:34.969Z,16.98
2022-08-11T05:58:06.972Z,16.20
2022-08-11T06:00:43.784Z,15.73
2022-08-11T06:03:12.239Z,16.80
2022-08-11T06:05:43.560Z,17.08
2022-08-11T06:08:14.816Z,15.90
2022-08-11T06:10:45.020Z,16.15
2022-08-11T06:13:17.517Z,18.23
2022-08-11T06:15:47.379Z,16.10
2022-08-11T06:18:16.489Z,16.52
2022-08-11T06:20:49.552Z,16.80
2022-08-11T06:23:20.502Z,16.67
2022-08-11T06:25:49.602Z,17.50
2022-08-11T06:28:22.618Z,18.05
2022-08-11T06:30:51.507Z,16.40
2022-08-11T06:33:23.220Z,17.45
2022-08-11T06:36:01.005Z,17.20
2022-08-11T06:38:47.957Z,16.60
2022-08-11T06:41:33.224Z,17.85
2022-08-11T06:44:16.377Z,17.98
2022-08-11T06:46:47.887Z,23.00
2022-08-11T06:49:35.280Z,19.42
2022-08-11T06:52:05.291Z,43.90
2022-08-11T06:54:36.345Z,46.78
2022-08-11T06:57:31.525Z,43.95
2022-08-11T07:00:29.007Z,44.00
2022-08-11T07:03:02.264Z,44.05
2022-08-11T07:05:43.642Z,44.58
2022-08-11T07:08:58.855Z,53.13
2022-08-11T07:12:18.585Z,45.75
2022-08-11T07:15:10.038Z,49.35
2022-08-11T07:17:49.879Z,52.38
2022-08-11T07:20:36.988Z,49.85
2022-08-11T07:23:26.263Z,49.22
2022-08-11T07:26:15.037Z,49.25
2022-08-11T07:28:56.365Z,49.28
2022-08-11T07:31:32.746Z,48.75
2022-08-11T07:34:17.412Z,48.47
2022-08-11T07:39:21.507Z,53.67
2022-08-11T07:41:51.384Z,51.53
2022-08-11T07:44:19.909Z,51.80
2022-08-11T07:47:08.003Z,52.58
2022-08-11T07:49:57.793Z,51.83
2022-08-11T07:52:34.078Z,51.15
2022-08-11T07:55:06.133Z,52.10
2022-08-11T07:58:16.224Z,53.05
2022-08-11T08:01:04.018Z,54.10
2022-08-11T08:03:57.858Z,55.42
2022-08-11T08:06:46.054Z,61.38
2022-08-11T08:09:32.326Z,58.63
2022-08-11T08:12:20.830Z,58.30
2022-08-11T08:15:06.512Z,60.25
2022-08-11T08:18:13.609Z,60.10
2022-08-11T08:20:45.642Z,62.78
2022-08-11T08:23:15.807Z,62.38
2022-08-11T08:25:46.115Z,64.78
2022-08-11T08:28:16.693Z,61.47
2022-08-11T08:30:48.005Z,65.47
2022-08-11T08:33:20.259Z,57.15
2022-08-11T08:35:54.209Z,54.72
2022-08-11T08:38:25.354Z,56.35
2022-08-11T08:40:56.422Z,58.28
2022-08-11T08:43:26.248Z,55.47
2022-08-11T08:45:58.629Z,54.38
2022-08-11T08:48:28.256Z,56.20
2022-08-11T08:51:22.118Z,58.00
2022-08-11T08:53:58.577Z,59.00
2022-08-11T08:56:29.257Z,58.92
2022-08-11T08:58:59.888Z,57.83
2022-08-11T09:01:32.934Z,57.25
2022-08-11T09:04:10.570Z,55.03
2022-08-11T09:06:42.971Z,56.40
2022-08-11T09:09:13.501Z,53.35
2022-08-11T09:11:54.300Z,54.92
2022-08-11T09:14:46.414Z,56.95
2022-08-11T09:17:15.120Z,56.95
2022-08-11T09:19:43.680Z,54.40
2022-08-11T09:22:38.361Z,54.42
2022-08-11T09:25:28.744Z,54.00
2022-08-11T09:27:57.688Z,55.05
2022-08-11T09:30:27.781Z,55.33
2022-08-11T09:32:58.251Z,56.03
2022-08-11T09:35:28.205Z,55.65
2022-08-11T09:38:15.216Z,55.97
2022-08-11T09:40:46.896Z,61.80
2022-08-11T09:43:43.870Z,59.45
2022-08-11T09:46:13.102Z,58.78
2022-08-11T09:48:44.541Z,60.00
2022-08-11T09:51:13.987Z,55.70
2022-08-11T09:53:47.165Z,56.53
2022-08-11T09:56:50.927Z,58.45
2022-08-11T09:59:21.593Z,59.05
2022-08-11T10:01:56.154Z,61.10
2022-08-11T10:04:31.234Z,61.75
2022-08-11T10:07:04.221Z,61.97
2022-08-11T10:09:39.619Z,62.42
2022-08-11T10:12:13.136Z,63.38
2022-08-11T10:15:06.402Z,60.75
2022-08-11T10:17:37.893Z,63.40
2022-08-11T10:20:10.296Z,62.65
2022-08-11T10:22:56.404Z,62.97
2022-08-11T10:25:50.613Z,64.07
2022-08-11T10:28:33.547Z,63.78
2022-08-11T10:31:30.561Z,65.53
2022-08-11T10:34:15.275Z,64.80
2022-08-11T10:36:48.275Z,65.78
2022-08-11T10:39:21.394Z,66.10
2022-08-11T10:42:10.751Z,65.45
2022-08-11T10:44:49.893Z,65.47
2022-08-11T10:47:36.295Z,66.15
2022-08-11T10:50:23.380Z,66.25
2022-08-11T10:53:10.365Z,65.22
2022-08-11T10:55:58.758Z,63.42
2022-08-11T10:58:44.944Z,63.78
2022-08-11T11:01:16.199Z,62.75
2022-08-11T11:03:45.605Z,61.10
2022-08-11T11:06:29.101Z,61.58
2022-08-11T11:09:07.671Z,61.33
2022-08-11T11:11:57.409Z,58.72
2022-08-11T11:14:50.805Z,60.42
2022-08-11T11:17:47.801Z,58.97
2022-08-11T11:20:36.154Z,58.85
2022-08-11T11:23:09.389Z,59.70
2022-08-11T11:26:12.607Z,60.17
2022-08-11T11:28:58.776Z,59.13
2022-08-11T11:31:35.633Z,61.28
2022-08-11T11:34:20.092Z,60.92
2022-08-11T11:36:51.606Z,64.30
2022-08-11T11:39:22.968Z,62.40
2022-08-11T11:41:53.565Z,65.22
2022-08-11T11:44:23.738Z,64.90
2022-08-11T11:46:52.344Z,62.13
2022-08-11T11:49:27.659Z,64.20
2022-08-11T11:51:58.256Z,63.30
2022-08-11T11:54:28.726Z,62.75
2022-08-11T11:56:58.848Z,62.88
2022-08-11T11:59:47.156Z,60.80
2022-08-11T12:02:17.140Z,64.63
2022-08-11T12:04:48.807Z,64.63
2022-08-11T12:07:35.545Z,58.92
2022-08-11T12:10:04.524Z,59.58
2022-08-11T12:12:53.154Z,59.63
2022-08-11T12:15:30.845Z,63.58
2022-08-11T12:18:12.583Z,61.63
2022-08-11T12:20:42.200Z,59.10
2022-08-11T12:23:28.732Z,66.70
2022-08-11T12:26:26.874Z,61.42
2022-08-11T12:28:58.626Z,58.80
2022-08-11T12:31:27.099Z,58.70
2022-08-11T12:34:00.879Z,61.20
2022-08-11T12:36:33.669Z,56.90
2022-08-11T12:39:06.127Z,57.17
2022-08-11T12:42:09.272Z,58.75
2022-08-11T12:44:56.634Z,60.03
2022-08-11T12:47:25.128Z,77.03
2022-08-11T12:50:22.604Z,62.72
2022-08-11T12:52:57.034Z,58.58
2022-08-11T12:55:40.512Z,59.17
2022-08-11T12:58:18.752Z,60.30
2022-08-11T13:01:05.001Z,60.65
2022-08-11T13:03:56.808Z,58.58
2022-08-11T13:06:26.588Z,60.28
2022-08-11T13:09:01.112Z,58.38
2022-08-11T13:11:56.154Z,58.30
2022-08-11T13:14:27.162Z,58.22
2022-08-11T13:17:13.157Z,58.17
2022-08-11T13:19:49.681Z,59.72
2022-08-11T13:22:19.552Z,59.47
2022-08-11T13:24:50.941Z,58.85
2022-08-11T13:27:20.878Z,55.95
2022-08-11T13:29:50.663Z,59.40
2022-08-11T13:32:21.547Z,63.72
2022-08-11T13:34:49.964Z,62.47
2022-08-11T13:37:20.408Z,60.97
2022-08-11T13:40:11.961Z,60.75
2022-08-11T13:42:41.774Z,58.95
2022-08-11T13:45:10.636Z,59.97
2022-08-11T13:47:43.449Z,60.45
2022-08-11T13:50:13.682Z,60.03
2022-08-11T13:52:43.655Z,51.45
2022-08-11T13:55:50.995Z,59.05
2022-08-11T13:58:20.687Z,56.97
2022-08-11T14:01:00.434Z,54.17
2022-08-11T14:04:30.389Z,54.92
2022-08-11T14:06:23.535Z,54.55
2022-08-11T14:08:54.695Z,56.63
2022-08-11T14:12:19.989Z,57.55
2022-08-11T14:14:35.540Z,55.67
2022-08-11T14:17:09.943Z,53.15
2022-08-11T14:19:43.547Z,56.30
2022-08-11T14:22:15.399Z,56.17
2022-08-11T14:24:49.597Z,55.20
2022-08-11T14:28:22.221Z,54.35
2022-08-11T14:30:29.078Z,54.33
2022-08-11T14:32:59.785Z,53.13
2022-08-11T14:35:29.341Z,53.22
2022-08-11T14:37:58.269Z,55.28
2022-08-11T14:40:44.669Z,58.72
2022-08-11T14:44:12.320Z,58.60
2022-08-11T14:46:38.239Z,55.33
2022-08-11T14:49:06.638Z,56.53
2022-08-11T14:51:35.601Z,56.28
2022-08-11T14:54:18.226Z,55.15
2022-08-11T14:56:46.577Z,55.95
2022-08-11T14:59:16.208Z,54.30
2022-08-11T15:02:03.420Z,49.40
2022-08-11T15:04:35.284Z,55.97
2022-08-11T15:07:05.597Z,54.40
2022-08-11T15:10:11.753Z,55.17
2022-08-11T15:12:36.250Z,55.13
2022-08-11T15:15:25.711Z,55.08
2022-08-11T15:17:55.138Z,52.03
2022-08-11T15:20:41.632Z,54.08
2022-08-11T15:23:27.695Z,54.63
2022-08-11T15:25:59.578Z,52.70
2022-08-11T15:28:48.181Z,51.70
2022-08-11T15:31:36.834Z,181.45
2022-08-11T15:34:33.288Z,60.95
2022-08-11T15:37:24.925Z,61.45
2022-08-11T15:40:31.770Z,58.33
2022-08-11T15:43:27.072Z,189.38
2022-08-11T15:46:02.504Z,63.10
2022-08-11T15:48:46.283Z,60.42
2022-08-11T15:51:25.039Z,65.63
2022-08-11T15:53:57.042Z,63.92
2022-08-11T15:56:27.614Z,63.83
2022-08-11T15:59:40.880Z,65.63
2022-08-11T16:02:25.843Z,64.78
2022-08-11T16:04:56.949Z,62.25
2022-08-11T16:07:30.546Z,64.10
2022-08-11T16:10:07.563Z,60.22
2022-08-11T16:12:41.653Z,61.75
2022-08-11T16:15:43.091Z,62.40
2022-08-11T16:18:11.813Z,63.40
2022-08-11T16:20:41.471Z,65.10
2022-08-11T16:23:11.307Z,63.63
2022-08-11T16:27:03.001Z,62.45
2022-08-11T16:28:30.605Z,66.65
2022-08-11T16:30:59.142Z,66.72
2022-08-11T16:33:50.707Z,64.63
2022-08-11T16:36:37.358Z,68.03
2022-08-11T16:39:06.977Z,64.97
2022-08-11T16:42:05.387Z,66.50
2022-08-11T16:44:52.452Z,67.88
2022-08-11T16:48:01.829Z,67.15
2022-08-11T16:50:12.042Z,68.50
2022-08-11T16:52:42.558Z,63.72
2022-08-11T16:55:11.038Z,66.88
2022-08-11T16:58:01.316Z,65.55
2022-08-11T17:00:32.589Z,167.75
2022-08-11T17:03:21.401Z,17.38
2022-08-11T17:06:10.921Z,18.00
2022-08-11T17:09:01.940Z,16.98
2022-08-11T17:11:50.737Z,16.90
2022-08-11T17:14:35.503Z,19.27
2022-08-11T17:17:06.081Z,19.13
2022-08-11T17:20:42.317Z,18.77
2022-08-11T17:22:44.747Z,18.90
2022-08-11T17:25:14.787Z,18.00
2022-08-11T17:27:44.440Z,18.35
2022-08-11T17:30:14.901Z,18.88
2022-08-11T17:33:06.053Z,19.52
2022-08-11T17:35:38.940Z,18.98
2022-08-11T17:38:09.568Z,19.17
2022-08-11T17:41:01.372Z,18.95
2022-08-11T17:43:44.903Z,20.63
2022-08-11T17:46:32.671Z,19.35
2022-08-11T17:49:01.847Z,18.80
2022-08-11T17:51:48.960Z,18.05
2022-08-11T17:54:34.984Z,18.65
2022-08-11T17:57:29.352Z,17.70
2022-08-11T17:59:59.291Z,18.75
2022-08-11T18:02:49.192Z,19.27
2022-08-11T18:05:19.829Z,18.33
2022-08-11T18:08:08.391Z,18.33
2022-08-11T18:10:55.145Z,17.88
2022-08-11T18:13:43.849Z,18.58
2022-08-11T18:16:30.805Z,18.20
2022-08-11T18:19:16.391Z,18.67
2022-08-11T18:22:14.681Z,18.33
2022-08-11T18:25:06.055Z,17.50
2022-08-11T18:27:54.765Z,18.23
2022-08-11T18:30:42.878Z,21.63
2022-08-11T18:36:41.817Z,21.60
2022-08-11T18:39:31.442Z,21.70
2022-08-11T18:42:28.876Z,21.77
2022-08-11T18:45:18.147Z,21.75
2022-08-11T18:48:07.252Z,21.23
2022-08-11T18:51:02.569Z,20.73
2022-08-11T18:54:09.278Z,20.50
2022-08-11T18:56:55.695Z,20.42
2022-08-11T18:59:44.956Z,20.60
2022-08-11T19:02:33.616Z,20.00
2022-08-11T19:06:32.384Z,20.35
2022-08-11T19:08:46.252Z,20.50
2022-08-11T19:11:32.971Z,26.20
2022-08-11T19:14:22.928Z,20.88
2022-08-11T19:17:09.920Z,20.45
2022-08-11T19:19:57.962Z,20.40
2022-08-11T19:22:47.792Z,19.63
2022-08-11T19:25:34.446Z,20.30
2022-08-11T19:28:24.597Z,20.42
2022-08-11T19:31:11.089Z,20.00
2022-08-11T19:34:02.611Z,20.20
2022-08-11T19:36:57.810Z,20.00
2022-08-11T19:39:46.143Z,19.58
2022-08-11T19:42:33.542Z,21.75
2022-08-11T19:45:21.614Z,21.00
2022-08-11T19:48:30.525Z,20.27
2022-08-11T19:51:15.034Z,21.10
2022-08-11T19:54:01.138Z,20.90
2022-08-11T19:56:48.694Z,21.55
2022-08-11T19:59:40.009Z,20.63
2022-08-11T20:02:26.218Z,18.35
2022-08-11T20:05:11.817Z,19.25
2022-08-11T20:07:58.665Z,18.42
2022-08-11T20:10:47.696Z,18.48
2022-08-11T20:13:35.435Z,18.67
2022-08-11T20:16:22.025Z,19.20
2022-08-11T20:19:10.390Z,18.15
2022-08-11T20:21:57.639Z,18.20
2022-08-11T20:24:43.662Z,19.48
2022-08-11T20:27:31.345Z,18.08
2022-08-11T20:30:21.077Z,17.92
2022-08-11T20:33:07.381Z,19.27
2022-08-11T20:35:55.113Z,18.60
2022-08-11T20:38:42.820Z,18.67
2022-08-11T20:41:30.367Z,19.70
2022-08-11T20:44:17.878Z,19.23
2022-08-11T20:47:05.575Z,20.55
2022-08-11T20:50:02.977Z,18.55
2022-08-11T20:52:50.490Z,18.35
2022-08-11T20:55:51.957Z,18.80
2022-08-11T20:59:13.390Z,19.40
2022-08-11T21:01:52.369Z,18.48
2022-08-11T21:04:54.103Z,19.42
2022-08-11T21:07:42.347Z,18.90
2022-08-11T21:10:30.398Z,17.77
2022-08-11T21:13:25.334Z,18.27
2022-08-11T21:16:22.710Z,18.52
2022-08-11T21:19:15.964Z,18.73
2022-08-11T21:22:05.107Z,17.92
2022-08-11T21:24:51.930Z,18.10
2022-08-11T21:27:40.569Z,18.55
2022-08-11T21:30:27.479Z,18.08
2022-08-11T21:33:14.135Z,17.63
2022-08-11T21:36:01.177Z,17.75
2022-08-11T21:38:49.528Z,18.20
2022-08-11T21:41:36.656Z,17.88
2022-08-11T21:44:24.746Z,18.13
2022-08-11T21:47:11.281Z,18.63
2022-08-11T21:49:59.320Z,18.30
2022-08-11T21:52:46.014Z,19.02
2022-08-11T21:55:33.399Z,18.20
2022-08-11T21:58:19.448Z,18.58
2022-08-11T22:01:05.442Z,18.27
2022-08-11T22:03:51.043Z,17.95
2022-08-11T22:06:39.465Z,17.73
2022-08-11T22:09:26.022Z,18.70
2022-08-11T22:12:35.197Z,19.05
2022-08-11T22:15:19.020Z,18.25
2022-08-11T22:18:04.663Z,19.02
2022-08-11T22:20:51.819Z,19.30
2022-08-11T22:23:38.639Z,19.77
2022-08-11T22:26:25.966Z,20.10
2022-08-11T22:29:13.269Z,20.48
2022-08-11T22:32:00.503Z,18.98
2022-08-11T22:34:53.518Z,19.08
2022-08-11T22:37:40.771Z,18.48
2022-08-11T22:40:28.923Z,18.88
2022-08-11T22:43:14.944Z,19.27
2022-08-11T22:46:02.302Z,18.98
2022-08-11T22:48:49.208Z,18.25
2022-08-11T22:51:37.876Z,18.95
2022-08-11T22:54:24.775Z,19.40
2022-08-11T22:57:10.810Z,18.10
2022-08-11T22:59:57.350Z,18.58
2022-08-11T23:02:46.955Z,18.35
2022-08-11T23:05:33.950Z,19.23
2022-08-11T23:08:19.884Z,18.88
2022-08-11T23:11:06.906Z,19.33
2022-08-11T23:13:53.680Z,18.55
2022-08-11T23:16:40.342Z,18.90
2022-08-11T23:20:10.148Z,19.20
2022-08-11T23:22:49.069Z,18.33
2022-08-11T23:25:36.186Z,18.55
2022-08-11T23:28:23.717Z,18.50
2022-08-11T23:31:12.371Z,18.88
2022-08-11T23:34:00.550Z,18.80
2022-08-11T23:36:48.120Z,18.00
2022-08-11T23:39:34.368Z,18.23
2022-08-11T23:42:20.270Z,17.85
2022-08-11T23:45:07.710Z,19.30
2022-08-11T23:47:57.060Z,18.30
2022-08-11T23:50:43.625Z,19.17
2022-08-11T23:53:32.113Z,18.75
2022-08-11T23:56:17.661Z,18.63
2022-08-11T23:59:08.666Z,18.10
